Time;durP1;ratioP1;P1;durP2;ratioP2;P2;SDS_P1;SDS_P2;PMS_P1;PMS_P2;Temp;Humidity;BMP_temperature;BMP_pressure;BME280_temperature;BME280_humidity;BME280_pressure;Samples;Min_cycle;Max_cycle;Signal;HPM_P1;HPM_P2
2023/12/05 07:59:50;;;;;;;;;2.00;0.00;;;;;19.57;43.52;100338.72;5631974;23;45412;-69
2023/12/05 08:02:15;;;;;;;;;0.00;0.00;;;;;19.48;43.50;100330.84;4927850;28;47335;-72
2023/12/05 08:04:41;;;;;;;;;0.00;0.00;;;;;19.56;43.61;100345.81;4931035;28;45863;-73
2023/12/05 08:07:07;;;;;;;;;1.00;1.00;;;;;19.57;43.48;100349.28;4934275;28;45342;-73
2023/12/05 08:09:32;;;;;;;;;0.00;0.00;;;;;19.56;43.71;100358.19;4937032;28;45459;-73
2023/12/05 08:11:58;;;;;;;;;1.00;0.00;;;;;19.53;43.52;100355.88;4938205;28;45423;-73
2023/12/05 08:14:23;;;;;;;;;0.00;0.00;;;;;19.57;43.37;100367.75;4937940;28;45364;-73
2023/12/05 08:16:48;;;;;;;;;0.00;0.00;;;;;19.54;43.70;100362.81;4938058;28;45259;-73
2023/12/05 08:19:14;;;;;;;;;0.00;0.00;;;;;19.54;43.50;100366.28;4926134;28;45331;-73
2023/12/05 08:21:39;;;;;;;;;0.00;0.00;;;;;19.54;43.62;100368.94;4918879;28;46921;-72
2023/12/05 08:24:05;;;;;;;;;0.00;0.00;;;;;19.57;43.52;100381.75;4929685;28;45477;-71
2023/12/05 08:26:31;;;;;;;;;1.00;0.67;;;;;19.56;43.45;100380.13;4938335;28;45435;-73
2023/12/05 08:28:58;;;;;;;;;0.67;0.00;;;;;19.53;43.27;100377.81;4936834;28;45539;-73
2023/12/05 08:31:24;;;;;;;;;1.00;0.00;;;;;19.49;43.65;100376.53;4937152;28;47076;-73
2023/12/05 08:33:49;;;;;;;;;0.00;0.00;;;;;19.55;43.47;100390.84;4937986;28;45310;-73
2023/12/05 08:36:14;;;;;;;;;0.00;0.00;;;;;19.48;43.45;100374.88;4934377;28;45391;-73
2023/12/05 08:38:39;;;;;;;;;0.00;0.00;;;;;19.56;43.38;100398.59;4938078;28;45331;-73
2023/12/05 08:41:05;;;;;;;;;0.00;0.00;;;;;19.57;43.51;100399.41;4936841;28;65053;-71
2023/12/05 08:43:30;;;;;;;;;1.00;0.00;;;;;19.52;43.66;100397.28;4937978;28;45215;-72
2023/12/05 08:45:56;;;;;;;;;0.00;0.00;;;;;19.58;43.35;100406.31;4936329;28;45512;-72
2023/12/05 08:48:21;;;;;;;;;0.00;0.00;;;;;19.49;43.52;100400.28;4937226;28;53047;-72
2023/12/05 08:50:46;;;;;;;;;0.00;0.00;;;;;19.49;43.52;100398.44;4937642;28;45294;-72
2023/12/05 08:53:12;;;;;;;;;0.33;0.33;;;;;19.51;43.41;100414.94;4952090;28;53070;-72
2023/12/05 08:55:39;;;;;;;;;0.33;0.00;;;;;19.57;43.29;100420.53;4937835;28;45304;-72
2023/12/05 08:58:04;;;;;;;;;0.00;0.00;;;;;19.58;43.25;100422.16;4937639;28;45323;-72
2023/12/05 09:00:30;;;;;;;;;0.67;0.00;;;;;19.55;43.15;100412.78;4936964;28;45715;-72
2023/12/05 09:02:55;;;;;;;;;0.00;0.00;;;;;19.57;43.63;100416.06;4937534;28;45681;-73
2023/12/05 09:05:21;;;;;;;;;2.00;0.00;;;;;19.53;43.47;100419.22;4937471;28;45511;-72
2023/12/05 09:07:46;;;;;;;;;0.00;0.00;;;;;19.55;43.54;100417.22;4937325;28;45311;-73
2023/12/05 09:10:11;;;;;;;;;1.00;1.00;;;;;19.57;43.27;100428.44;4937352;28;46335;-72
2023/12/05 09:12:37;;;;;;;;;0.00;0.00;;;;;19.57;43.31;100423.16;4937555;28;45414;-73
2023/12/05 09:15:02;;;;;;;;;0.00;0.00;;;;;19.49;43.16;100422.19;4937386;28;45334;-72
2023/12/05 09:17:28;;;;;;;;;0.00;0.00;;;;;19.58;43.32;100432.72;4937550;28;45405;-72
2023/12/05 09:19:54;;;;;;;;;0.00;0.00;;;;;19.57;43.35;100437.16;4937439;28;45897;-72
2023/12/05 09:22:20;;;;;;;;;0.00;0.00;;;;;19.57;43.41;100439.81;4937264;28;45500;-72
2023/12/05 09:24:46;;;;;;;;;0.00;0.00;;;;;19.50;43.17;100431.78;4937354;28;45440;-72
2023/12/05 09:27:12;;;;;;;;;0.00;0.00;;;;;19.57;43.38;100446.91;4937444;28;45517;-72
2023/12/05 09:29:38;;;;;;;;;0.00;0.00;;;;;19.56;43.28;100458.47;4936586;28;45929;-72
2023/12/05 09:32:04;;;;;;;;;0.00;0.00;;;;;19.56;43.34;100458.47;4937200;28;45958;-72
2023/12/05 09:34:30;;;;;;;;;0.00;0.00;;;;;19.57;43.40;100457.47;4937393;28;45317;-72
2023/12/05 09:36:55;;;;;;;;;0.67;0.67;;;;;19.52;43.38;100455.34;4937028;28;45423;-72
2023/12/05 09:39:21;;;;;;;;;0.33;0.00;;;;;19.56;43.24;100461.94;4937460;28;46619;-72
2023/12/05 09:42:01;;;;;;;;;0.00;0.00;;;;;19.55;43.32;100464.72;4940613;28;45357;-72
2023/12/05 09:44:29;;;;;;;;;0.33;0.33;;;;;19.56;43.29;100466.38;4939972;28;45398;-72
2023/12/05 09:46:57;;;;;;;;;0.00;0.00;;;;;19.54;43.45;100465.72;4940489;28;45437;-72
2023/12/05 09:49:26;;;;;;;;;0.33;0.33;;;;;19.56;43.45;100479.56;4940224;28;45374;-72
2023/12/05 09:51:53;;;;;;;;;0.67;0.67;;;;;19.56;43.33;100475.13;4940335;28;45223;-72
2023/12/05 09:54:18;;;;;;;;;1.00;0.67;;;;;19.56;43.19;100477.75;4940224;28;45305;-72
2023/12/05 09:56:44;;;;;;;;;0.00;0.00;;;;;19.51;43.42;100480.91;4940388;28;45594;-72
2023/12/05 09:59:10;;;;;;;;;0.67;0.00;;;;;19.54;43.37;100479.75;4939788;28;46182;-72
2023/12/05 10:01:36;;;;;;;;;2.67;1.00;;;;;19.54;43.14;100486.84;4939810;28;45425;-73
2023/12/05 10:04:02;;;;;;;;;2.00;0.67;;;;;19.56;43.38;100498.88;4939555;28;45377;-72
2023/12/05 10:06:29;;;;;;;;;0.00;0.00;;;;;19.56;43.62;100490.97;4940244;28;45434;-73
2023/12/05 10:08:56;;;;;;;;;1.00;0.00;;;;;19.56;43.31;100492.75;4939769;28;47445;-73
2023/12/05 10:11:24;;;;;;;;;1.00;1.00;;;;;19.57;43.19;100500.50;4939987;28;45389;-72
2023/12/05 10:13:50;;;;;;;;;0.00;0.00;;;;;19.56;43.42;100495.41;4939620;28;45300;-73
2023/12/05 10:16:16;;;;;;;;;0.67;0.00;;;;;19.45;43.16;100486.88;4939629;28;45547;-72
2023/12/05 10:18:44;;;;;;;;;2.00;2.00;;;;;19.54;43.40;100506.16;4938700;28;46082;-72
2023/12/05 10:21:09;;;;;;;;;0.00;0.00;;;;;19.54;43.29;100511.41;4939899;28;45362;-72
2023/12/05 10:23:35;;;;;;;;;1.00;1.00;;;;;19.57;43.21;100513.69;4939621;28;49175;-72
2023/12/05 10:26:00;;;;;;;;;3.00;1.00;;;;;19.56;43.24;100519.97;4939907;28;45362;-74
2023/12/05 10:28:25;;;;;;;;;1.00;1.00;;;;;19.53;43.19;100519.50;4938043;28;47089;-74
2023/12/05 10:30:50;;;;;;;;;3.00;1.00;;;;;19.53;43.47;100519.50;4939284;28;45360;-74
2023/12/05 10:33:18;;;;;;;;;1.33;1.33;;;;;19.58;43.22;100531.19;4939556;28;47514;-74
2023/12/05 10:35:45;;;;;;;;;1.67;1.00;;;;;19.57;43.36;100531.38;4939768;28;45359;-74
2023/12/05 10:38:13;;;;;;;;;1.00;1.00;;;;;19.46;43.42;100520.19;4939560;28;46148;-74
2023/12/05 10:40:55;;;;;;;;;1.33;0.00;;;;;19.59;43.44;100530.19;4939501;28;45311;-72
2023/12/05 10:43:23;;;;;;;;;2.67;2.00;;;;;19.58;43.61;100544.38;4939482;28;45397;-74
2023/12/05 10:45:49;;;;;;;;;0.67;0.67;;;;;19.52;43.33;100531.84;4939580;28;45443;-74
2023/12/05 10:48:16;;;;;;;;;1.33;1.33;;;;;19.50;43.56;100531.22;4937789;28;48324;-74
2023/12/05 10:50:42;;;;;;;;;2.00;2.00;;;;;19.59;43.35;100547.84;4938903;28;45384;-73
2023/12/05 10:53:08;;;;;;;;;1.00;1.00;;;;;19.56;43.45;100553.47;4939130;28;45441;-72
2023/12/05 10:55:34;;;;;;;;;1.33;1.00;;;;;19.57;43.61;100555.91;4938919;28;45440;-73
2023/12/05 10:58:01;;;;;;;;;2.67;1.00;;;;;19.59;43.60;100561.03;4939240;28;46151;-71
2023/12/05 11:00:28;;;;;;;;;1.67;1.00;;;;;19.55;43.58;100546.53;4938880;28;45385;-72
2023/12/05 11:02:55;;;;;;;;;2.00;0.00;;;;;19.56;43.60;100559.56;4939230;28;45492;-73
2023/12/05 11:05:21;;;;;;;;;2.00;1.00;;;;;19.58;43.74;100568.13;4939123;28;45402;-74
2023/12/05 11:07:46;;;;;;;;;5.33;2.33;;;;;19.59;43.56;100568.97;4938953;28;47310;-74
2023/12/05 11:10:12;;;;;;;;;2.33;1.67;;;;;19.55;43.66;100557.09;4938716;28;45375;-74
2023/12/05 11:12:39;;;;;;;;;2.67;2.67;;;;;19.58;43.50;100568.13;4939315;28;45284;-74
2023/12/05 11:15:08;;;;;;;;;2.00;1.00;;;;;19.58;43.64;100567.31;4939296;28;45391;-74
2023/12/05 11:17:48;;;;;;;;;1.00;1.00;;;;;19.54;43.55;100563.38;4938748;28;46962;-74
2023/12/05 11:20:13;;;;;;;;;1.00;1.00;;;;;19.58;43.35;100575.22;4938691;28;45290;-73
2023/12/05 11:22:48;;;;;;;;;3.00;1.00;;;;;19.58;43.56;100581.31;4939235;28;45503;-74
2023/12/05 11:25:45;;;;;;;;;2.00;1.00;;;;;19.57;43.59;100577.03;4938768;28;45244;-73
2023/12/05 11:28:32;;;;;;;;;1.00;1.00;;;;;19.58;43.48;100576.06;4938529;28;46027;-73
2023/12/05 11:31:36;;;;;;;;;1.00;1.00;;;;;19.59;43.59;100576.88;4938855;28;45509;-71
2023/12/05 11:34:10;;;;;;;;;1.00;1.00;;;;;19.57;43.31;100582.31;4939100;28;45470;-73
2023/12/05 11:36:53;;;;;;;;;3.00;2.00;;;;;19.56;43.25;100578.03;4938957;28;45434;-73
2023/12/05 11:39:20;;;;;;;;;5.67;5.00;;;;;19.55;43.64;100578.19;4938358;28;46232;-72
2023/12/05 11:42:09;;;;;;;;;3.67;3.00;;;;;19.58;43.87;100586.59;4938817;28;45271;-72
2023/12/05 11:44:35;;;;;;;;;6.33;3.33;;;;;19.51;43.96;100572.44;4938841;28;45282;-74
2023/12/05 11:47:03;;;;;;;;;6.00;4.33;;;;;19.54;44.02;100585.31;4937702;28;45385;-74
2023/12/05 11:49:46;;;;;;;;;7.67;4.33;;;;;19.64;43.62;100594.84;4938575;28;46395;-71
2023/12/05 11:52:12;;;;;;;;;8.67;3.67;;;;;19.65;43.78;100594.66;4938686;28;45387;-75
2023/12/05 11:54:43;;;;;;;;;4.00;3.33;;;;;19.53;43.83;100582.81;4938367;28;45274;-74
2023/12/05 11:57:13;;;;;;;;;6.67;4.00;;;;;19.67;43.78;100602.41;4938597;28;45550;-73
2023/12/05 11:59:40;;;;;;;;;3.67;3.67;;;;;19.61;43.54;100594.19;4938187;28;47004;-74
2023/12/05 12:02:08;;;;;;;;;11.00;4.00;;;;;19.62;43.54;100600.28;4938306;28;45425;-73
2023/12/05 12:04:33;;;;;;;;;4.00;3.00;;;;;19.62;43.53;100611.66;4938801;28;45327;-74
2023/12/05 12:06:59;;;;;;;;;4.33;4.00;;;;;19.62;43.73;100614.28;4938416;28;45424;-74
2023/12/05 12:09:24;;;;;;;;;5.67;3.67;;;;;19.59;43.86;100605.91;4937864;28;46298;-74
2023/12/05 12:11:50;;;;;;;;;7.00;4.00;;;;;19.53;43.81;100599.47;4938463;28;45327;-74
2023/12/05 12:14:17;;;;;;;;;6.67;3.67;;;;;19.62;43.76;100613.50;4938530;28;45318;-74
2023/12/05 12:16:44;;;;;;;;;5.00;3.00;;;;;19.58;43.76;100610.34;4938689;28;45451;-74
2023/12/05 12:19:14;;;;;;;;;6.67;4.00;;;;;19.62;43.85;100618.78;4938150;28;47163;-72
2023/12/05 12:21:40;;;;;;;;;4.67;3.67;;;;;19.61;44.22;100617.94;4931619;28;45438;-72
2023/12/05 12:24:18;;;;;;;;;3.67;3.33;;;;;19.62;44.07;100627.50;4927072;28;45244;-72
2023/12/05 12:26:56;;;;;;;;;5.33;4.33;;;;;19.62;44.31;100618.78;4918983;28;45478;-72
2023/12/05 12:29:23;;;;;;;;;6.33;3.67;;;;;19.60;44.29;100620.72;4918635;28;45480;-72
2023/12/05 12:31:50;;;;;;;;;4.67;2.00;;;;;19.59;44.31;100627.03;4917585;28;45384;-72
2023/12/05 12:34:24;;;;;;;;;7.33;3.00;;;;;19.62;44.23;100627.50;4918966;28;45252;-72
2023/12/05 12:36:50;;;;;;;;;3.67;3.00;;;;;19.54;44.45;100613.50;4918497;28;45445;-71
2023/12/05 12:39:16;;;;;;;;;4.67;3.00;;;;;19.63;44.31;100628.31;4921983;28;45314;-70
2023/12/05 12:41:42;;;;;;;;;5.00;3.67;;;;;19.62;44.26;100624.84;4937202;28;45402;-72
2023/12/05 12:44:09;;;;;;;;;5.00;3.33;;;;;19.64;44.60;100622.06;4936838;28;45366;-72
2023/12/05 12:46:35;;;;;;;;;8.33;3.67;;;;;19.58;44.49;100623.56;4936719;28;45275;-72
2023/12/05 12:49:02;;;;;;;;;4.67;3.00;;;;;19.60;44.41;100628.66;4936528;28;47460;-73
2023/12/05 12:51:30;;;;;;;;;6.33;4.00;;;;;19.61;44.52;100628.50;4936892;28;45404;-70
2023/12/05 12:53:55;;;;;;;;;2.00;2.00;;;;;19.66;44.47;100635.91;4936862;28;45395;-70
2023/12/05 12:56:21;;;;;;;;;6.00;2.67;;;;;19.66;44.54;100638.53;4937087;28;45196;-71
2023/12/05 12:58:47;;;;;;;;;3.00;2.00;;;;;19.66;44.22;100632.44;4937042;28;45984;-71
2023/12/05 13:01:13;;;;;;;;;5.00;3.67;;;;;19.64;44.64;100635.25;4934085;28;45459;-71
2023/12/05 13:03:43;;;;;;;;;2.67;2.67;;;;;19.66;44.45;100641.19;4936485;28;45442;-69
2023/12/05 13:06:08;;;;;;;;;2.00;2.00;;;;;19.66;44.62;100638.53;4936963;28;45449;-69
2023/12/05 13:08:34;;;;;;;;;5.33;4.00;;;;;19.66;44.47;100632.44;4937067;28;45451;-70
2023/12/05 13:10:59;;;;;;;;;5.33;2.33;;;;;19.67;44.53;100642.00;4937521;28;45392;-70
2023/12/05 13:13:25;;;;;;;;;4.33;3.00;;;;;19.59;44.43;100621.75;4937572;28;45361;-70
2023/12/05 13:15:50;;;;;;;;;3.00;2.00;;;;;19.68;44.35;100643.66;4935754;28;45336;-69
2023/12/05 13:18:16;;;;;;;;;5.67;3.67;;;;;19.66;44.42;100638.53;4937465;28;46004;-71
2023/12/05 13:20:51;;;;;;;;;2.33;2.33;;;;;19.66;44.43;100633.25;4936932;28;45330;-70
2023/12/05 13:23:17;;;;;;;;;3.33;2.33;;;;;19.67;44.29;100637.53;4936185;28;45337;-70
2023/12/05 13:25:42;;;;;;;;;2.67;2.00;;;;;19.62;44.24;100627.50;4937475;28;45233;-70
2023/12/05 13:28:08;;;;;;;;;4.00;2.67;;;;;19.62;44.64;100631.97;4937161;28;46125;-71
2023/12/05 13:30:33;;;;;;;;;5.00;3.00;;;;;19.58;43.96;100620.09;4937138;28;45292;-70
2023/12/05 13:32:59;;;;;;;;;4.67;2.00;;;;;19.66;44.22;100646.47;4937221;28;45490;-70
2023/12/05 13:35:24;;;;;;;;;3.00;2.00;;;;;19.65;44.22;100649.28;4937004;28;45370;-69
2023/12/05 13:37:50;;;;;;;;;3.00;3.00;;;;;19.67;43.93;100647.28;4937194;28;45349;-71
2023/12/05 13:40:15;;;;;;;;;2.33;2.33;;;;;19.56;44.30;100635.28;4937027;28;45283;-70
2023/12/05 13:42:40;;;;;;;;;2.00;2.00;;;;;19.67;44.02;100652.56;4937388;28;45460;-70
2023/12/05 13:45:06;;;;;;;;;3.00;2.00;;;;;19.64;44.00;100651.09;4937019;28;45595;-69
2023/12/05 13:47:32;;;;;;;;;4.00;2.67;;;;;19.65;43.92;100654.56;4936893;28;45877;-70
2023/12/05 13:49:58;;;;;;;;;4.00;1.00;;;;;19.67;43.90;100658.66;4936463;28;45402;-70
2023/12/05 13:52:23;;;;;;;;;2.67;1.67;;;;;19.67;44.01;100663.13;4936873;28;45350;-70
2023/12/05 13:54:48;;;;;;;;;2.00;1.00;;;;;19.68;43.94;100670.03;4937074;28;45347;-69
2023/12/05 13:57:14;;;;;;;;;4.67;3.00;;;;;19.67;43.93;100660.50;4951590;28;47258;-71
2023/12/05 13:59:39;;;;;;;;;2.00;0.67;;;;;19.66;44.06;100672.03;4936591;28;45324;-71
2023/12/05 14:02:06;;;;;;;;;3.00;2.33;;;;;19.66;44.11;100674.66;4936785;28;45449;-71
2023/12/05 14:04:33;;;;;;;;;1.67;1.33;;;;;19.64;44.05;100679.28;4936590;28;45321;-71
2023/12/05 14:06:59;;;;;;;;;3.33;2.00;;;;;19.57;44.29;100674.69;4936526;28;46346;-71
2023/12/05 14:09:25;;;;;;;;;3.00;2.00;;;;;19.65;43.96;100691.50;4936595;28;45340;-71
2023/12/05 14:11:50;;;;;;;;;5.00;3.00;;;;;19.67;43.79;100697.44;4936994;28;45682;-71
2023/12/05 14:14:16;;;;;;;;;4.33;1.00;;;;;19.67;43.79;100694.81;4936722;28;45421;-71
2023/12/05 14:16:41;;;;;;;;;3.33;1.33;;;;;19.66;43.87;100704.53;4936497;28;47154;-69
2023/12/05 14:19:06;;;;;;;;;3.33;2.00;;;;;19.66;43.81;100701.88;4936142;28;47129;-70
2023/12/05 14:21:32;;;;;;;;;1.33;1.33;;;;;19.61;44.05;100699.75;4936410;28;51344;-70
2023/12/05 14:23:58;;;;;;;;;1.33;1.33;;;;;19.66;43.89;100699.25;4936651;28;45487;-70
2023/12/05 14:26:23;;;;;;;;;2.00;2.00;;;;;19.65;43.83;100704.72;4937034;28;46113;-71
2023/12/05 14:28:48;;;;;;;;;2.00;2.00;;;;;19.64;43.89;100711.81;4939604;28;45421;-70
2023/12/05 14:31:14;;;;;;;;;5.00;2.00;;;;;19.65;43.80;100713.44;4940067;28;45386;-71
2023/12/05 14:33:39;;;;;;;;;2.33;2.00;;;;;19.65;44.02;100712.63;4939479;28;45402;-71
2023/12/05 14:36:05;;;;;;;;;2.33;1.00;;;;;19.63;43.76;100715.41;4939768;28;45360;-70
2023/12/05 14:38:32;;;;;;;;;1.00;1.00;;;;;19.57;43.68;100708.19;4939583;28;45287;-71
2023/12/05 14:40:58;;;;;;;;;1.00;1.00;;;;;19.62;43.80;100716.44;4939771;28;45303;-69
2023/12/05 14:43:23;;;;;;;;;2.00;2.00;;;;;19.64;43.91;100724.16;4939679;28;45327;-70
2023/12/05 14:45:48;;;;;;;;;2.00;2.00;;;;;19.62;43.81;100724.34;4939406;28;45453;-71
2023/12/05 14:48:14;;;;;;;;;2.00;2.00;;;;;19.62;43.80;100724.34;4939275;28;45359;-70
2023/12/05 14:50:40;;;;;;;;;3.00;2.00;;;;;19.56;44.04;100723.19;4939680;28;45425;-70
2023/12/05 14:53:05;;;;;;;;;3.00;2.67;;;;;19.62;43.91;100738.34;4939636;28;45396;-70
2023/12/05 14:55:31;;;;;;;;;2.33;2.00;;;;;19.61;43.82;100739.34;4939417;28;45511;-70
2023/12/05 14:57:56;;;;;;;;;3.00;1.33;;;;;19.61;43.76;100744.63;4938835;28;54470;-70
2023/12/05 15:00:22;;;;;;;;;2.00;0.67;;;;;19.54;43.87;100737.53;4954281;28;45335;-71
2023/12/05 15:02:47;;;;;;;;;3.00;2.00;;;;;19.62;43.66;100753.38;4938729;28;45550;-70
2023/12/05 15:05:13;;;;;;;;;2.67;2.67;;;;;19.56;43.75;100752.22;4939251;28;46364;-70
2023/12/05 15:07:38;;;;;;;;;3.00;3.00;;;;;19.61;43.68;100760.47;4939374;28;45471;-71
2023/12/05 15:10:06;;;;;;;;;1.00;1.00;;;;;19.62;43.75;100756.03;4939487;28;45417;-71
2023/12/05 15:12:31;;;;;;;;;2.00;1.00;;;;;19.63;43.64;100760.28;4939494;28;45393;-70
2023/12/05 15:14:56;;;;;;;;;1.33;1.33;;;;;19.62;43.60;100763.94;4938784;28;46231;-70
2023/12/05 15:17:22;;;;;;;;;3.33;2.00;;;;;19.62;43.66;100764.72;4953470;28;48858;-71
2023/12/05 15:19:47;;;;;;;;;2.00;1.33;;;;;19.61;43.65;100775.47;4939232;28;45308;-70
2023/12/05 15:22:12;;;;;;;;;2.67;1.33;;;;;19.63;43.57;100776.13;4938868;28;45320;-69
2023/12/05 15:24:38;;;;;;;;;1.00;1.00;;;;;19.58;43.69;100778.44;4939016;28;46188;-70
2023/12/05 15:27:03;;;;;;;;;2.00;1.67;;;;;19.62;43.37;100783.22;4938746;28;53407;-70
2023/12/05 15:29:29;;;;;;;;;2.33;1.00;;;;;19.63;43.60;100794.59;4939022;28;45445;-70
2023/12/05 15:31:56;;;;;;;;;2.00;2.00;;;;;19.62;43.48;100793.78;4937361;28;45478;-70
2023/12/05 15:34:21;;;;;;;;;1.33;1.33;;;;;19.62;43.44;100795.59;4938385;28;47129;-70
2023/12/05 15:36:47;;;;;;;;;1.00;1.00;;;;;19.61;43.59;100802.69;4937322;28;45467;-70
2023/12/05 15:39:12;;;;;;;;;2.00;2.00;;;;;19.62;43.59;100808.81;4938856;28;45448;-70
2023/12/05 15:41:37;;;;;;;;;1.67;1.33;;;;;19.61;43.38;100807.13;4938703;28;45454;-71
2023/12/05 15:44:03;;;;;;;;;2.33;2.33;;;;;19.61;43.42;100820.34;4938637;28;46925;-70
2023/12/05 15:46:28;;;;;;;;;1.00;1.00;;;;;19.60;43.62;100816.88;4938040;28;45305;-69
2023/12/05 15:48:54;;;;;;;;;4.00;2.00;;;;;19.60;43.25;100822.16;4938543;28;45350;-70
2023/12/05 15:51:19;;;;;;;;;1.33;1.33;;;;;19.59;43.41;100814.41;4938828;28;45356;-70
2023/12/05 15:53:44;;;;;;;;;1.00;1.00;;;;;19.59;43.47;100824.97;4938690;28;46590;-70
2023/12/05 15:56:14;;;;;;;;;1.67;0.67;;;;;19.58;43.54;100829.41;4938524;28;45377;-71
2023/12/05 15:58:40;;;;;;;;;1.00;1.00;;;;;19.57;43.39;100833.03;4938703;28;45296;-70
2023/12/05 16:01:06;;;;;;;;;1.00;1.00;;;;;19.50;43.58;100832.03;4937794;28;45636;-70
2023/12/05 16:03:31;;;;;;;;;1.00;1.00;;;;;19.55;43.57;100850.00;4938251;28;46955;-70
2023/12/05 16:05:57;;;;;;;;;1.00;1.00;;;;;19.55;43.57;100850.00;4938364;28;45365;-70
2023/12/05 16:08:23;;;;;;;;;0.67;0.67;;;;;19.50;43.61;100845.22;4938116;28;45394;-70
2023/12/05 16:10:50;;;;;;;;;2.00;2.00;;;;;19.56;43.45;100863.06;4938437;28;45330;-70
2023/12/05 16:13:15;;;;;;;;;1.00;1.00;;;;;19.56;43.46;100867.50;4938107;28;46969;-70
2023/12/05 16:15:41;;;;;;;;;1.00;1.00;;;;;19.56;43.79;100865.69;4937706;28;46123;-70
2023/12/05 16:18:06;;;;;;;;;4.00;1.00;;;;;19.56;43.53;100870.16;4938225;28;46871;-70
2023/12/05 16:20:31;;;;;;;;;1.00;1.00;;;;;19.56;43.52;100872.78;4937970;28;45539;-70
2023/12/05 16:22:56;;;;;;;;;1.00;1.00;;;;;19.55;43.51;100871.13;4937925;28;46112;-70
2023/12/05 16:25:22;;;;;;;;;4.00;1.00;;;;;19.54;43.58;100866.84;4936947;28;45949;-70
2023/12/05 16:27:47;;;;;;;;;3.00;1.00;;;;;19.56;43.60;100870.97;4938122;28;45388;-69
2023/12/05 16:30:13;;;;;;;;;1.33;1.33;;;;;19.48;43.59;100866.53;4937885;28;45312;-68
2023/12/05 16:32:39;;;;;;;;;3.00;1.00;;;;;19.57;43.65;100877.09;4938098;28;45328;-70
2023/12/05 16:35:05;;;;;;;;;1.00;1.00;;;;;19.56;43.76;100878.91;4937952;28;45307;-70
2023/12/05 16:37:30;;;;;;;;;2.00;1.00;;;;;19.56;43.60;100880.72;4937868;28;45391;-70
2023/12/05 16:39:56;;;;;;;;;3.67;2.00;;;;;19.55;43.61;100881.69;4937945;28;45513;-70
2023/12/05 16:42:21;;;;;;;;;1.00;1.00;;;;;19.55;43.75;100887.78;4937690;28;47862;-70
2023/12/05 16:44:47;;;;;;;;;1.00;1.00;;;;;19.52;43.48;100872.28;4936656;28;45491;-69
2023/12/05 16:47:13;;;;;;;;;3.67;1.00;;;;;19.56;43.60;100884.19;4936867;28;45687;-70
2023/12/05 16:49:39;;;;;;;;;1.67;1.67;;;;;19.56;43.62;100896.53;4937161;28;45364;-70
2023/12/05 16:52:05;;;;;;;;;1.00;1.00;;;;;19.55;43.68;100895.72;4937796;28;45394;-70
2023/12/05 16:54:30;;;;;;;;;1.00;1.00;;;;;19.52;43.51;100890.75;4937836;28;45314;-72
2023/12/05 16:56:55;;;;;;;;;0.67;0.67;;;;;19.55;43.59;100889.59;4937995;28;45342;-72
2023/12/05 16:59:21;;;;;;;;;2.00;2.00;;;;;19.55;43.53;100893.06;4937468;28;45505;-74
2023/12/05 17:01:46;;;;;;;;;1.67;1.67;;;;;19.51;43.72;100889.94;4937669;28;46083;-72
2023/12/05 17:04:15;;;;;;;;;2.00;2.00;;;;;19.53;43.64;100883.66;4937537;28;45249;-74
2023/12/05 17:06:41;;;;;;;;;1.00;1.00;;;;;19.56;43.76;100894.72;4938014;28;45497;-68
2023/12/05 17:09:08;;;;;;;;;5.33;2.00;;;;;19.57;43.81;100900.84;4937783;28;45343;-68
2023/12/05 17:11:33;;;;;;;;;2.00;0.00;;;;;19.58;43.97;100902.47;4937418;28;45465;-69
2023/12/05 17:13:58;;;;;;;;;2.00;2.00;;;;;19.57;44.36;100904.28;4936909;28;53130;-70
2023/12/05 17:16:24;;;;;;;;;2.00;1.00;;;;;19.60;44.21;100916.34;4937439;28;48214;-71
2023/12/05 17:18:50;;;;;;;;;5.67;2.00;;;;;19.55;43.87;100903.63;4937578;28;45352;-73
2023/12/05 17:21:15;;;;;;;;;1.33;1.00;;;;;19.61;44.13;100924.09;4937476;28;46523;-72
2023/12/05 17:23:41;;;;;;;;;2.33;1.33;;;;;19.62;44.26;100928.38;4937362;28;45394;-73
2023/12/05 17:26:07;;;;;;;;;3.00;2.00;;;;;19.59;43.80;100922.63;4934780;28;45387;-75
2023/12/05 17:28:33;;;;;;;;;2.00;2.00;;;;;19.59;43.90;100920.81;4930114;28;45462;-76
2023/12/05 17:30:58;;;;;;;;;3.00;3.00;;;;;19.48;44.10;100905.28;4932862;28;45475;-74
2023/12/05 17:33:23;;;;;;;;;7.00;2.33;;;;;19.57;44.33;100925.41;4929376;28;45364;-74
2023/12/05 17:35:48;;;;;;;;;2.33;1.67;;;;;19.63;44.11;100934.50;4935549;28;45225;-74
2023/12/05 17:38:14;;;;;;;;;5.33;2.00;;;;;19.62;44.58;100928.38;4956092;28;45250;-72
2023/12/05 17:40:40;;;;;;;;;5.67;4.00;;;;;19.11;44.69;100857.97;4955741;28;46043;-74
2023/12/05 17:43:06;;;;;;;;;5.33;3.00;;;;;19.56;45.00;100933.50;4956225;28;45535;-74
2023/12/05 17:45:31;;;;;;;;;8.33;4.00;;;;;19.68;45.22;100948.03;4956656;28;45378;-72
2023/12/05 17:47:57;;;;;;;;;6.00;5.00;;;;;19.70;45.45;100950.50;4956451;28;45441;-72
2023/12/05 17:50:23;;;;;;;;;5.67;2.67;;;;;19.59;45.55;100931.38;4956156;28;46893;-72
2023/12/05 17:52:48;;;;;;;;;2.33;1.67;;;;;19.71;45.55;100950.34;4956418;28;45425;-70
2023/12/05 17:55:13;;;;;;;;;7.33;3.00;;;;;19.77;45.82;100962.09;4956480;28;45354;-74
2023/12/05 17:57:39;;;;;;;;;4.00;3.00;;;;;19.81;45.78;100968.69;4956013;28;45294;-70
2023/12/05 18:00:06;;;;;;;;;4.00;3.00;;;;;19.76;45.72;100967.50;4955688;28;64248;-73
2023/12/05 18:02:31;;;;;;;;;6.00;4.00;;;;;19.71;46.00;100944.25;4955045;28;45445;-72
2023/12/05 18:04:57;;;;;;;;;4.67;3.67;;;;;19.79;46.04;100967.19;4940346;28;45359;-75
2023/12/05 18:07:22;;;;;;;;;9.00;4.67;;;;;19.84;46.09;100973.66;4940522;28;45310;-75
2023/12/05 18:09:50;;;;;;;;;8.00;4.33;;;;;19.71;45.79;100958.28;4939784;28;52053;-73
2023/12/05 18:12:16;;;;;;;;;10.00;4.00;;;;;19.84;46.55;100968.38;4939779;28;45474;-73
2023/12/05 18:14:41;;;;;;;;;6.00;2.67;;;;;19.93;46.04;100973.66;4940224;28;45418;-75
2023/12/05 18:17:06;;;;;;;;;4.67;4.00;;;;;19.85;46.42;100966.56;4940265;28;45554;-72
2023/12/05 18:19:33;;;;;;;;;3.67;2.67;;;;;19.84;46.30;100963.09;4939676;28;53058;-71
2023/12/05 18:21:58;;;;;;;;;5.00;3.00;;;;;19.96;46.25;100981.25;4940050;28;45424;-72
2023/12/05 18:24:24;;;;;;;;;5.00;3.67;;;;;19.87;46.53;100972.50;4939989;28;45434;-72
2023/12/05 18:26:49;;;;;;;;;3.33;2.33;;;;;19.98;46.65;100989.84;4939471;28;45489;-69
2023/12/05 18:29:15;;;;;;;;;6.67;5.00;;;;;19.95;46.47;100977.78;4939677;28;46281;-73
2023/12/05 18:31:40;;;;;;;;;7.00;2.00;;;;;20.00;46.69;100984.41;4939937;28;45386;-73
2023/12/05 18:34:05;;;;;;;;;8.67;4.33;;;;;19.78;46.39;100955.81;4939957;28;45387;-75
2023/12/05 18:36:31;;;;;;;;;5.00;4.33;;;;;19.71;46.37;100941.59;4940105;28;45286;-75
2023/12/05 18:38:56;;;;;;;;;4.33;2.00;;;;;20.02;46.57;100993.81;4939753;28;46088;-74
2023/12/05 18:41:22;;;;;;;;;5.67;2.33;;;;;19.98;46.60;100983.75;4939436;28;45272;-72
2023/12/05 18:43:47;;;;;;;;;5.67;3.67;;;;;19.79;46.79;100954.81;4939770;28;45315;-71
2023/12/05 18:46:12;;;;;;;;;2.67;2.67;;;;;20.04;46.74;100996.28;4939425;28;48865;-73
2023/12/05 18:48:38;;;;;;;;;5.33;3.00;;;;;20.03;46.69;100992.81;4939689;28;45607;-73
2023/12/05 18:51:04;;;;;;;;;5.00;3.67;;;;;20.00;46.76;100990.50;4939743;28;45445;-72
2023/12/05 18:53:29;;;;;;;;;8.67;3.33;;;;;19.92;46.50;100983.41;4934644;28;45457;-71
2023/12/05 18:55:59;;;;;;;;;6.33;4.00;;;;;20.06;46.66;101012.81;4929881;28;45708;-71
2023/12/05 18:58:26;;;;;;;;;2.67;2.67;;;;;19.89;46.72;100991.63;4933282;28;46117;-72
2023/12/05 19:00:52;;;;;;;;;3.00;3.00;;;;;20.05;46.77;101024.34;4938130;28;45521;-72
2023/12/05 19:03:17;;;;;;;;;5.00;2.67;;;;;19.91;46.59;100997.56;4928386;28;45268;-71
2023/12/05 19:05:45;;;;;;;;;3.33;2.67;;;;;19.94;46.31;101009.63;4933433;28;45379;-71
2023/12/05 19:08:11;;;;;;;;;7.00;3.33;;;;;20.01;46.27;101023.03;4937425;28;46121;-71
2023/12/05 19:10:36;;;;;;;;;2.67;2.67;;;;;19.98;46.14;101026.00;4938144;28;45434;-72
2023/12/05 19:13:01;;;;;;;;;2.67;2.67;;;;;19.92;46.48;101022.19;4937622;28;48356;-72
2023/12/05 19:15:26;;;;;;;;;6.33;3.67;;;;;19.94;46.22;101034.22;4938949;28;45531;-72
2023/12/05 19:17:53;;;;;;;;;2.33;2.33;;;;;19.89;46.25;101025.13;4938412;28;48839;-72
2023/12/05 19:20:19;;;;;;;;;3.00;3.00;;;;;19.95;46.28;101035.06;4938568;28;45406;-72